Time;durP1;ratioP1;P1;durP2;ratioP2;P2;SDS_P1;SDS_P2;PMS_P1;PMS_P2;Temp;Humidity;BMP_temperature;BMP_pressure;BME280_temperature;BME280_humidity;BME280_pressure;Samples;Min_cycle;Max_cycle;Signal;HPM_P1;HPM_P2
2022/10/18 00:01:10;;;;;;;34.17;17.88;;;;;;;6.12;100.00;101154.34;5035400;28;20115;-94
2022/10/18 00:03:39;;;;;;;27.27;15.30;;;;;;;6.04;100.00;101162.72;5040541;28;20537;-92
2022/10/18 00:06:10;;;;;;;22.50;14.05;;;;;;;5.96;100.00;101160.53;5025943;28;20476;-93
2022/10/18 00:08:39;;;;;;;20.58;13.43;;;;;;;5.92;100.00;101166.09;5041295;28;20025;-93
2022/10/18 00:11:07;;;;;;;25.00;14.30;;;;;;;5.94;100.00;101172.91;5034426;28;20045;-85
2022/10/18 00:13:35;;;;;;;22.20;14.30;;;;;;;5.86;100.00;101163.84;5032432;28;20063;-85
2022/10/18 00:16:10;;;;;;;26.52;13.18;;;;;;;5.79;100.00;101158.13;5038521;28;20027;-93
2022/10/18 00:18:38;;;;;;;21.55;13.18;;;;;;;5.74;100.00;101163.66;5056148;28;20036;-93
2022/10/18 00:21:10;;;;;;;22.95;12.02;;;;;;;5.74;100.00;101161.03;5038208;28;20124;-93
2022/10/18 00:23:37;;;;;;;20.13;10.70;;;;;;;5.74;100.00;101158.41;5004536;28;20033;-93
2022/10/18 00:26:16;;;;;;;20.75;11.50;;;;;;;5.82;100.00;101150.91;5054317;28;20050;-93
2022/10/18 00:28:49;;;;;;;18.20;10.35;;;;;;;5.89;100.00;101148.72;5023719;28;20032;-93
2022/10/18 00:31:30;;;;;;;18.50;9.60;;;;;;;6.02;100.00;101148.00;5027534;28;20056;-93
2022/10/18 00:34:04;;;;;;;17.90;9.77;;;;;;;6.02;100.00;101148.81;5026473;28;20024;-93
2022/10/18 00:36:34;;;;;;;43.55;32.97;;;;;;;6.03;100.00;101155.75;5058917;28;20028;-93
2022/10/18 00:39:05;;;;;;;27.83;14.88;;;;;;;5.95;100.00;101158.88;5028316;28;20028;-93
2022/10/18 00:41:34;;;;;;;27.42;13.10;;;;;;;5.79;100.00;101153.72;5030988;28;20029;-93
2022/10/18 00:44:12;;;;;;;23.95;11.18;;;;;;;5.74;100.00;101155.78;5015337;28;20043;-94
2022/10/18 00:46:47;;;;;;;16.48;9.82;;;;;;;5.80;100.00;101157.19;5057674;28;20032;-93
2022/10/18 00:49:25;;;;;;;21.20;10.20;;;;;;;5.86;100.00;101154.16;5033304;28;20457;-93
2022/10/18 00:52:07;;;;;;;17.45;10.18;;;;;;;5.89;100.00;101158.41;5036722;28;20028;-93
2022/10/18 00:54:38;;;;;;;15.57;10.20;;;;;;;5.92;100.00;101163.47;5039535;28;20090;-93
2022/10/18 00:57:08;;;;;;;19.30;10.88;;;;;;;5.88;100.00;101152.31;5031176;28;20041;-93
2022/10/18 00:59:37;;;;;;;23.45;9.80;;;;;;;5.89;100.00;101153.16;5051150;28;20032;-93
2022/10/18 01:02:06;;;;;;;19.60;10.73;;;;;;;5.87;100.00;101147.16;5018430;28;20082;-93
2022/10/18 01:04:37;;;;;;;20.50;11.45;;;;;;;5.88;100.00;101154.94;5021698;28;20029;-93
2022/10/18 01:07:35;;;;;;;23.58;10.40;;;;;;;5.87;100.00;101163.75;5029911;28;20032;-94
2022/10/18 01:10:45;;;;;;;14.57;8.98;;;;;;;5.64;100.00;101158.13;5041378;28;20133;-93
2022/10/18 01:13:21;;;;;;;12.82;8.18;;;;;;;5.51;100.00;101165.09;5030615;28;20116;-93
2022/10/18 01:16:05;;;;;;;13.50;7.43;;;;;;;5.52;100.00;101167.59;5029847;28;20075;-93
2022/10/18 01:18:39;;;;;;;17.95;7.43;;;;;;;5.57;100.00;101168.16;5039255;28;20472;-93
2022/10/18 01:21:34;;;;;;;11.43;6.15;;;;;;;5.58;100.00;101167.22;5033126;28;20025;-93
2022/10/18 01:24:13;;;;;;;11.65;6.13;;;;;;;5.47;100.00;101164.41;5014371;28;20120;-92
2022/10/18 01:26:52;;;;;;;13.68;6.63;;;;;;;5.43;100.00;101165.53;5032300;28;20082;-93
2022/10/18 01:29:59;;;;;;;24.73;7.82;;;;;;;5.43;100.00;101163.75;5050803;28;20026;-94
2022/10/18 01:32:34;;;;;;;18.83;7.40;;;;;;;5.29;100.00;101167.22;5017633;28;20123;-93
2022/10/18 01:35:09;;;;;;;12.75;7.05;;;;;;;5.33;100.00;101175.75;5035513;28;20028;-93
2022/10/18 01:37:42;;;;;;;20.45;8.13;;;;;;;5.30;100.00;101174.13;5020079;28;20072;-92
2022/10/18 01:40:15;;;;;;;16.95;7.45;;;;;;;5.32;100.00;101168.78;5030588;28;20029;-93
2022/10/18 01:42:48;;;;;;;12.60;5.70;;;;;;;5.33;100.00;101171.34;5019525;28;20033;-93
2022/10/18 01:45:20;;;;;;;11.18;4.85;;;;;;;5.38;100.00;101172.84;5031362;28;20533;-93
2022/10/18 01:47:51;;;;;;;12.50;4.07;;;;;;;5.39;100.00;101177.13;5018964;28;20124;-93
2022/10/18 01:50:33;;;;;;;16.08;4.43;;;;;;;5.42;100.00;101176.94;5036947;28;20119;-92
2022/10/18 01:53:02;;;;;;;9.20;3.95;;;;;;;5.43;100.00;101169.00;5046042;28;20026;-93
2022/10/18 01:55:43;;;;;;;8.35;3.15;;;;;;;5.46;100.00;101178.47;5016383;28;20482;-93
2022/10/18 01:58:31;;;;;;;6.63;3.47;;;;;;;5.48;100.00;101186.25;5034325;28;20086;-93
2022/10/18 02:01:13;;;;;;;8.18;2.70;;;;;;;5.51;100.00;101180.81;5020367;28;20465;-93
2022/10/18 02:03:47;;;;;;;6.18;3.22;;;;;;;5.54;100.00;101183.25;5033306;28;20033;-94
2022/10/18 02:06:29;;;;;;;4.95;2.78;;;;;;;5.66;100.00;101197.38;5030201;28;20068;-93
2022/10/18 02:09:12;;;;;;;11.00;3.20;;;;;;;5.71;100.00;101195.31;5030401;28;20053;-93
2022/10/18 02:11:44;;;;;;;10.75;4.55;;;;;;;5.73;100.00;101187.38;4998391;28;20032;-92
2022/10/18 02:14:17;;;;;;;12.95;4.70;;;;;;;5.74;100.00;101191.66;5026091;28;20017;-93
2022/10/18 02:17:00;;;;;;;7.45;4.22;;;;;;;5.72;100.00;101186.50;5031378;28;20029;-93
2022/10/18 02:19:35;;;;;;;13.00;3.90;;;;;;;5.77;100.00;101186.22;5013878;28;20033;-93
2022/10/18 02:22:07;;;;;;;8.85;3.65;;;;;;;5.79;100.00;101187.84;5016008;28;20034;-93
2022/10/18 02:24:39;;;;;;;12.82;3.72;;;;;;;5.78;100.00;101186.13;4995704;28;20021;-93
2022/10/18 02:27:09;;;;;;;6.43;3.42;;;;;;;5.81;100.00;101180.69;5000235;28;20086;-92
2022/10/18 02:29:41;;;;;;;7.57;3.20;;;;;;;5.80;100.00;101186.88;5018146;28;20123;-93
2022/10/18 02:32:20;;;;;;;8.90;4.05;;;;;;;5.80;100.00;101192.13;5031250;28;20044;-93
2022/10/18 02:34:58;;;;;;;9.13;3.47;;;;;;;5.78;100.00;101193.19;5027702;28;20033;-92
2022/10/18 02:37:34;;;;;;;8.55;4.32;;;;;;;5.62;100.00;101193.28;5004437;28;20118;-93
2022/10/18 02:40:06;;;;;;;10.27;4.65;;;;;;;5.37;100.00;101202.63;5018987;28;20024;-92
2022/10/18 02:42:39;;;;;;;10.35;4.43;;;;;;;5.23;100.00;101196.41;5003038;28;20032;-93
2022/10/18 02:45:08;;;;;;;10.30;3.88;;;;;;;5.12;100.00;101193.56;5022625;28;20052;-93
2022/10/18 02:47:37;;;;;;;11.27;3.83;;;;;;;5.09;100.00;101197.22;5018900;28;20060;-93
2022/10/18 02:50:06;;;;;;;10.23;3.10;;;;;;;5.14;100.00;101192.56;5018477;28;20029;-93
2022/10/18 02:52:34;;;;;;;5.95;2.97;;;;;;;5.22;100.00;101192.09;4999556;28;20082;-93
2022/10/18 02:55:01;;;;;;;7.38;3.08;;;;;;;5.27;100.00;101184.78;5018596;28;20021;-93
2022/10/18 02:57:30;;;;;;;9.20;2.75;;;;;;;5.41;100.00;101196.25;5003018;28;20044;-94
2022/10/18 02:59:58;;;;;;;11.68;2.45;;;;;;;5.45;100.00;101208.22;5019123;28;20029;-93
2022/10/18 03:02:26;;;;;;;7.22;2.33;;;;;;;5.52;100.00;101204.31;5023846;28;20031;-93
2022/10/18 03:04:54;;;;;;;5.38;1.80;;;;;;;5.55;100.00;101204.13;5032289;28;20030;-92
2022/10/18 03:07:24;;;;;;;6.63;1.73;;;;;;;5.59;100.00;101195.13;5012207;28;20033;-93
2022/10/18 03:09:54;;;;;;;8.73;2.10;;;;;;;5.67;100.00;101199.91;5021902;28;20534;-93
2022/10/18 03:12:23;;;;;;;11.50;2.33;;;;;;;5.72;100.00;101210.13;5004530;28;20058;-92
2022/10/18 03:14:51;;;;;;;4.68;2.05;;;;;;;5.79;100.00;101208.81;5021894;28;20025;-93
2022/10/18 03:17:20;;;;;;;5.75;2.75;;;;;;;5.81;100.00;101204.31;5041241;28;20029;-93
2022/10/18 03:19:47;;;;;;;12.75;3.03;;;;;;;5.86;100.00;101204.03;5029849;28;20098;-93
2022/10/18 03:22:15;;;;;;;5.68;1.90;;;;;;;5.96;100.00;101207.78;5017853;28;20032;-92
2022/10/18 03:24:44;;;;;;;10.63;2.33;;;;;;;6.05;100.00;101201.13;5024962;28;20101;-93
2022/10/18 03:27:13;;;;;;;6.70;2.22;;;;;;;6.15;100.00;101211.91;5037154;28;20102;-93
2022/10/18 03:29:41;;;;;;;5.72;2.33;;;;;;;6.17;100.00;101201.31;5038533;28;20075;-93
2022/10/18 03:32:11;;;;;;;8.05;1.92;;;;;;;6.23;100.00;101202.72;5023407;28;20037;-93
2022/10/18 03:34:39;;;;;;;7.32;2.20;;;;;;;6.22;100.00;101191.38;5012509;28;20029;-93
2022/10/18 03:37:07;;;;;;;5.68;2.30;;;;;;;6.13;100.00;101191.94;5016626;28;20047;-93
2022/10/18 03:39:36;;;;;;;5.50;2.03;;;;;;;6.11;100.00;101199.94;5045868;28;20032;-93
2022/10/18 03:42:04;;;;;;;6.40;2.72;;;;;;;6.04;100.00;101198.56;5022850;28;20123;-93
2022/10/18 03:44:34;;;;;;;5.40;1.98;;;;;;;6.10;100.00;101202.66;5017081;28;20115;-93
2022/10/18 03:47:03;;;;;;;10.20;2.00;;;;;;;6.11;100.00;101191.19;5029743;28;20041;-93
2022/10/18 03:49:33;;;;;;;8.15;2.33;;;;;;;6.11;100.00;101192.06;5020427;28;20409;-93
2022/10/18 03:52:00;;;;;;;17.30;2.85;;;;;;;6.20;100.00;101199.34;5016824;28;20028;-93
2022/10/18 03:54:30;;;;;;;6.28;2.25;;;;;;;6.26;100.00;101199.91;5020181;28;20775;-93
2022/10/18 03:57:00;;;;;;;14.15;3.10;;;;;;;6.26;100.00;101195.47;5002835;28;20039;-94
2022/10/18 03:59:29;;;;;;;12.13;3.60;;;;;;;6.26;100.00;101200.72;5015624;28;20047;-93
2022/10/18 04:01:57;;;;;;;15.15;4.57;;;;;;;6.27;100.00;101207.69;5036344;28;20492;-92
2022/10/18 04:04:27;;;;;;;12.45;3.60;;;;;;;6.32;100.00;101208.22;5022088;28;20120;-93
2022/10/18 04:06:56;;;;;;;7.97;3.42;;;;;;;6.37;100.00;101213.16;5021057;28;20124;-93
2022/10/18 04:09:24;;;;;;;11.32;3.08;;;;;;;6.37;100.00;101209.72;5019342;28;20045;-93
2022/10/18 04:11:51;;;;;;;12.48;3.40;;;;;;;6.45;100.00;101218.78;5037918;28;20043;-93
2022/10/18 04:14:22;;;;;;;13.00;3.45;;;;;;;6.49;100.00;101216.81;5025301;28;20115;-93
2022/10/18 04:16:52;;;;;;;5.38;2.58;;;;;;;6.53;100.00;101225.34;5029779;28;20114;-92
2022/10/18 04:19:19;;;;;;;8.02;2.88;;;;;;;6.47;100.00;101228.38;5019810;28;20481;-93
2022/10/18 04:21:49;;;;;;;7.85;3.30;;;;;;;6.44;100.00;101238.13;5038202;28;20037;-93
2022/10/18 04:24:19;;;;;;;10.07;2.75;;;;;;;6.39;100.00;101229.69;5024578;28;20028;-93
2022/10/18 04:26:49;;;;;;;12.75;3.45;;;;;;;6.44;100.00;101234.63;5033971;28;20095;-93
2022/10/18 04:29:19;;;;;;;11.15;3.75;;;;;;;6.41;100.00;101219.06;5021703;28;20041;-93
2022/10/18 04:31:49;;;;;;;8.75;2.65;;;;;;;6.47;100.00;101236.25;5024123;28;20040;-93
2022/10/18 04:34:18;;;;;;;6.35;2.95;;;;;;;6.51;100.00;101230.69;5035629;28;20029;-93
2022/10/18 04:36:45;;;;;;;13.88;2.83;;;;;;;6.51;100.00;101233.31;5025460;28;20393;-93
2022/10/18 04:39:14;;;;;;;11.70;2.88;;;;;;;6.64;100.00;101235.16;5036977;28;20135;-93
2022/10/18 04:41:42;;;;;;;8.43;2.88;;;;;;;6.64;100.00;101232.53;5046659;28;20040;-93
2022/10/18 04:44:11;;;;;;;10.60;3.00;;;;;;;6.68;100.00;101226.97;5046779;28;20047;-93
2022/10/18 04:46:39;;;;;;;15.55;3.10;;;;;;;6.76;100.00;101237.00;5013723;28;20049;-93
2022/10/18 04:49:07;;;;;;;14.35;4.13;;;;;;;6.81;100.00;101242.78;5020578;28;20577;-94
2022/10/18 04:51:35;;;;;;;13.27;3.10;;;;;;;6.76;100.00;101239.63;5039024;28;20037;-93
2022/10/18 04:54:04;;;;;;;15.00;3.72;;;;;;;6.79;100.00;101231.53;5019754;28;20043;-93
2022/10/18 04:56:32;;;;;;;17.88;4.03;;;;;;;6.80;100.00;101238.47;5039800;28;20041;-93
2022/10/18 04:59:00;;;;;;;28.92;3.78;;;;;;;6.86;100.00;101252.16;5022311;28;20043;-93
2022/10/18 05:01:28;;;;;;;31.48;3.95;;;;;;;6.82;100.00;101249.72;5015935;28;20132;-93
2022/10/18 05:03:58;;;;;;;15.02;3.97;;;;;;;6.92;100.00;101257.84;5036921;28;20055;-94
2022/10/18 05:06:28;;;;;;;15.93;3.97;;;;;;;6.93;100.00;101258.69;5021735;28;20048;-93
2022/10/18 05:08:58;;;;;;;31.13;4.70;;;;;;;6.97;100.00;101251.44;5022981;28;20040;-93
2022/10/18 05:11:27;;;;;;;31.58;4.68;;;;;;;7.00;100.00;101265.25;5028129;28;20043;-93
2022/10/18 05:13:56;;;;;;;33.08;3.90;;;;;;;7.00;100.00;101259.13;5020641;28;20082;-94
2022/10/18 05:16:27;;;;;;;56.15;4.45;;;;;;;7.01;100.00;101261.66;5028548;28;20044;-92
2022/10/18 05:18:55;;;;;;;18.08;4.03;;;;;;;7.06;100.00;101263.97;5037203;28;20492;-93
2022/10/18 05:21:23;;;;;;;19.75;3.83;;;;;;;7.10;100.00;101269.88;5019293;28;20030;-93
2022/10/18 05:23:55;;;;;;;27.13;4.47;;;;;;;7.19;100.00;101275.38;5042698;28;20029;-93
2022/10/18 05:26:23;;;;;;;17.77;4.07;;;;;;;7.24;100.00;101271.59;5028013;28;20066;-93
2022/10/18 05:28:51;;;;;;;18.83;3.38;;;;;;;7.27;100.00;101276.66;5039106;28;20032;-93
2022/10/18 05:31:20;;;;;;;29.73;4.63;;;;;;;7.26;100.00;101277.63;5055372;28;20036;-93
2022/10/18 05:33:48;;;;;;;24.05;3.88;;;;;;;7.29;100.00;101274.78;5024340;28;20043;-92
2022/10/18 05:36:16;;;;;;;20.23;3.45;;;;;;;7.32;100.00;101283.31;5020121;28;20099;-93
2022/10/18 05:38:46;;;;;;;22.58;4.38;;;;;;;7.36;100.00;101281.31;5044011;28;20035;-93
2022/10/18 05:41:14;;;;;;;12.93;3.58;;;;;;;7.35;100.00;101289.28;5053370;28;20467;-93
2022/10/18 05:43:44;;;;;;;16.75;3.80;;;;;;;7.32;100.00;101270.16;5074750;28;20036;-94
2022/10/18 05:46:14;;;;;;;13.85;3.75;;;;;;;7.30;100.00;101281.72;5043931;28;20036;-93
2022/10/18 05:48:44;;;;;;;11.60;3.30;;;;;;;7.29;100.00;101288.75;5041694;28;20029;-93
2022/10/18 05:51:14;;;;;;;14.05;3.53;;;;;;;7.23;100.00;101280.44;5025532;28;20119;-93
2022/10/18 05:53:44;;;;;;;15.82;3.20;;;;;;;7.22;100.00;101284.00;5033440;28;20035;-92
2022/10/18 05:56:14;;;;;;;8.27;2.60;;;;;;;7.15;100.00;101291.47;5052252;28;20028;-85
2022/10/18 05:58:43;;;;;;;11.93;3.10;;;;;;;7.04;100.00;101293.00;5036590;28;20036;-85
2022/10/18 06:01:10;;;;;;;9.02;2.70;;;;;;;6.95;100.00;101294.47;5035631;28;20025;-93
2022/10/18 06:03:39;;;;;;;9.48;2.47;;;;;;;6.89;100.00;101297.47;5052919;28;20432;-93
2022/10/18 06:06:10;;;;;;;5.25;2.45;;;;;;;6.81;100.00;101311.13;5019672;28;20028;-93
2022/10/18 06:08:42;;;;;;;4.68;2.42;;;;;;;6.75;100.00;101308.03;5051489;28;20036;-93
2022/10/18 06:11:17;;;;;;;4.40;2.67;;;;;;;6.66;100.00;101309.44;5024712;28;20032;-93
2022/10/18 06:13:49;;;;;;;3.70;2.72;;;;;;;6.56;100.00;101307.41;5036405;28;20070;-93
2022/10/18 06:16:20;;;;;;;11.07;3.08;;;;;;;6.46;100.00;101311.56;5019167;28;20476;-93
2022/10/18 06:18:49;;;;;;;12.57;2.80;;;;;;;6.38;100.00;101322.53;5014157;28;20043;-92
2022/10/18 06:21:19;;;;;;;36.97;3.58;;;;;;;6.27;100.00;101312.69;5013800;28;20485;-92
2022/10/18 06:23:52;;;;;;;30.48;3.15;;;;;;;6.25;100.00;101316.34;5035077;28;20501;-92
2022/10/18 06:26:22;;;;;;;17.50;2.75;;;;;;;6.13;100.00;101313.53;5020744;28;20037;-92
2022/10/18 06:28:52;;;;;;;11.50;2.67;;;;;;;6.10;100.00;101323.38;5031727;28;20028;-93
2022/10/18 06:31:21;;;;;;;13.48;2.17;;;;;;;5.99;100.00;101310.88;5023013;28;20040;-93
2022/10/18 06:33:49;;;;;;;14.07;2.63;;;;;;;6.00;100.00;101334.41;5018458;28;20116;-93
2022/10/18 06:36:23;;;;;;;23.58;2.33;;;;;;;6.06;100.00;101338.47;5019897;28;20553;-93
2022/10/18 06:38:51;;;;;;;8.20;2.38;;;;;;;5.94;100.00;101335.59;5037411;28;20499;-94
2022/10/18 06:41:21;;;;;;;8.93;2.17;;;;;;;5.95;100.00;101336.47;5052570;28;20052;-92
2022/10/18 06:43:52;;;;;;;19.60;2.58;;;;;;;6.02;100.00;101326.44;5034060;28;20062;-93
2022/10/18 06:46:20;;;;;;;6.60;2.10;;;;;;;6.04;100.00;101333.31;5021673;28;20031;-93
2022/10/18 06:48:49;;;;;;;36.85;2.60;;;;;;;6.07;100.00;101334.91;5017340;28;20037;-92
2022/10/18 06:51:17;;;;;;;16.95;2.05;;;;;;;6.16;100.00;101336.13;5066409;28;20036;-92
2022/10/18 06:53:46;;;;;;;30.58;2.38;;;;;;;6.23;100.00;101341.88;5028445;28;20037;-91
2022/10/18 06:56:13;;;;;;;23.30;3.08;;;;;;;6.31;100.00;101337.81;5053033;28;20086;-93
2022/10/18 06:58:43;;;;;;;63.90;4.15;;;;;;;6.32;100.00;101343.94;5017421;28;20036;-92
2022/10/18 07:01:15;;;;;;;28.13;3.53;;;;;;;6.41;100.00;101343.34;5042648;28;20089;-92
2022/10/18 07:03:47;;;;;;;107.53;5.00;;;;;;;6.46;100.00;101343.06;5039402;28;20036;-93
2022/10/18 07:06:18;;;;;;;44.03;4.15;;;;;;;6.54;100.00;101348.69;5049418;28;20098;-90
2022/10/18 07:08:51;;;;;;;57.22;3.97;;;;;;;6.62;100.00;101350.00;5031172;28;20042;-92
2022/10/18 07:11:24;;;;;;;44.05;5.20;;;;;;;6.73;100.00;101354.56;5016150;28;20032;-91
2022/10/18 07:13:59;;;;;;;70.13;5.15;;;;;;;6.83;100.00;101350.44;5025776;28;20066;-92
2022/10/18 07:16:30;;;;;;;87.95;5.07;;;;;;;6.94;100.00;101347.13;5046130;28;20102;-93
2022/10/18 07:19:00;;;;;;;125.53;6.45;;;;;;;7.06;100.00;101348.09;5028318;28;20477;-91
2022/10/18 07:21:30;;;;;;;58.00;3.72;;;;;;;7.14;100.00;101355.50;5065982;28;20040;-91
2022/10/18 07:24:00;;;;;;;54.70;4.03;;;;;;;7.24;100.00;101353.13;5036079;28;20040;-91
2022/10/18 07:26:32;;;;;;;98.00;4.25;;;;;;;7.34;100.00;101353.38;5021648;28;20029;-91
2022/10/18 07:29:06;;;;;;;12.15;2.33;;;;;;;7.47;100.00;101359.50;5011673;28;20040;-92
2022/10/18 07:31:37;;;;;;;76.03;5.32;;;;;;;7.57;100.00;101360.59;5048229;28;20115;-92
2022/10/18 07:34:10;;;;;;;148.90;5.85;;;;;;;7.64;100.00;101355.75;5060912;28;20055;-91
2022/10/18 07:36:40;;;;;;;109.90;6.57;;;;;;;7.71;100.00;101358.00;5023520;28;20029;-91
2022/10/18 07:39:07;;;;;;;163.95;8.15;;;;;;;7.75;100.00;101359.47;5027368;28;20036;-91
2022/10/18 07:41:36;;;;;;;164.15;8.18;;;;;;;7.82;100.00;101356.31;5040472;28;20496;-90
2022/10/18 07:44:04;;;;;;;87.10;5.82;;;;;;;7.91;100.00;101369.78;5052211;28;20089;-91
2022/10/18 07:46:32;;;;;;;65.72;6.78;;;;;;;8.01;100.00;101372.66;5041119;28;20043;-91
2022/10/18 07:49:00;;;;;;;25.40;5.95;;;;;;;8.10;100.00;101371.16;5025425;28;20021;-91
2022/10/18 07:51:31;;;;;;;70.72;6.82;;;;;;;8.15;100.00;101372.56;5027127;28;20045;-91
2022/10/18 07:54:04;;;;;;;48.13;6.72;;;;;;;8.22;100.00;101378.22;5054201;28;20032;-91
2022/10/18 07:56:33;;;;;;;53.80;6.93;;;;;;;8.30;100.00;101372.41;5024093;28;20067;-90
2022/10/18 07:59:00;;;;;;;63.00;8.13;;;;;;;8.35;100.00;101377.38;5043157;28;20037;-91
2022/10/18 08:01:28;;;;;;;68.20;8.50;;;;;;;8.40;100.00;101378.75;5038173;28;20040;-91
2022/10/18 08:03:57;;;;;;;53.97;9.57;;;;;;;8.50;100.00;101386.88;5037534;28;20826;-92
2022/10/18 08:06:25;;;;;;;56.42;10.88;;;;;;;8.56;100.00;101370.66;5039214;28;20032;-92
2022/10/18 08:08:53;;;;;;;40.55;9.45;;;;;;;8.65;100.00;101370.94;5025766;28;20053;-91
2022/10/18 08:11:25;;;;;;;28.25;7.32;;;;;;;8.71;100.00;101362.63;5040311;28;20063;-91
2022/10/18 08:13:54;;;;;;;32.17;6.78;;;;;;;8.76;100.00;101372.84;5036992;28;20496;-92
2022/10/18 08:16:27;;;;;;;20.55;5.10;;;;;;;8.80;100.00;101376.91;5045441;28;20126;-91
2022/10/18 08:18:58;;;;;;;16.23;5.18;;;;;;;8.89;100.00;101378.03;5039899;28;20043;-91
2022/10/18 08:21:30;;;;;;;16.02;5.18;;;;;;;8.93;100.00;101377.72;5024519;28;20032;-92
2022/10/18 08:24:01;;;;;;;14.15;5.65;;;;;;;9.00;100.00;101377.31;5020795;28;20036;-91
2022/10/18 08:26:30;;;;;;;15.23;5.75;;;;;;;9.06;100.00;101369.75;5053341;28;20083;-91
2022/10/18 08:28:59;;;;;;;20.50;7.47;;;;;;;9.11;100.00;101374.69;5037165;28;20029;-91
2022/10/18 08:31:27;;;;;;;33.50;8.63;;;;;;;9.16;100.00;101366.44;5020380;28;20067;-91
2022/10/18 08:33:56;;;;;;;24.25;7.65;;;;;;;9.18;100.00;101360.13;5032861;28;20033;-90
2022/10/18 08:36:24;;;;;;;30.80;9.30;;;;;;;9.21;100.00;101364.31;5029379;28;20037;-91
2022/10/18 08:38:52;;;;;;;28.40;8.68;;;;;;;9.26;100.00;101372.75;5026267;28;20036;-90
2022/10/18 08:41:32;;;;;;;26.25;8.85;;;;;;;9.28;100.00;101367.38;5045322;28;20033;-91
2022/10/18 08:44:23;;;;;;;27.58;8.38;;;;;;;9.30;100.00;101366.28;5036803;28;20127;-91
2022/10/18 08:47:05;;;;;;;20.33;8.18;;;;;;;9.33;100.00;101359.09;5042397;28;20086;-89
2022/10/18 08:49:59;;;;;;;22.65;8.10;;;;;;;9.30;100.00;101355.72;5045622;28;20037;-91
2022/10/18 08:52:43;;;;;;;24.13;7.32;;;;;;;9.32;100.00;101354.78;5061230;28;20047;-90
2022/10/18 08:55:24;;;;;;;23.63;8.00;;;;;;;9.29;100.00;101356.69;5016588;28;20040;-91
2022/10/18 08:57:54;;;;;;;17.33;6.93;;;;;;;9.28;100.00;101352.38;5028168;28;20055;-91
2022/10/18 09:00:27;;;;;;;28.85;7.80;;;;;;;9.28;100.00;101346.25;5026365;28;20108;-91
2022/10/18 09:03:19;;;;;;;21.85;7.53;;;;;;;9.29;100.00;101346.16;5020853;28;20047;-91
2022/10/18 09:05:53;;;;;;;24.85;7.75;;;;;;;9.26;100.00;101348.16;5052526;28;20594;-91
2022/10/18 09:08:50;;;;;;;21.17;7.65;;;;;;;9.30;100.00;101344.34;5038665;28;21316;-91
2022/10/18 09:11:23;;;;;;;21.70;7.38;;;;;;;9.26;100.00;101349.00;5012281;28;20064;-90
2022/10/18 09:13:51;;;;;;;24.65;7.75;;;;;;;9.32;100.00;101342.44;5024043;28;20033;-90
2022/10/18 09:16:37;;;;;;;21.50;7.00;;;;;;;9.40;100.00;101341.84;5025534;28;20128;-90
2022/10/18 09:19:43;;;;;;;20.55;7.07;;;;;;;9.42;100.00;101343.44;5017836;28;20099;-91
2022/10/18 09:22:18;;;;;;;21.98;7.00;;;;;;;9.59;100.00;101343.13;5004005;28;20053;-91
2022/10/18 09:25:04;;;;;;;22.15;7.03;;;;;;;9.67;100.00;101341.59;5020319;28;20037;-90
2022/10/18 09:27:43;;;;;;;17.65;7.13;;;;;;;9.77;100.00;101338.25;5010407;28;20060;-90
2022/10/18 09:30:15;;;;;;;23.30;7.25;;;;;;;9.89;100.00;101339.13;4998245;28;20037;-91
2022/10/18 09:32:52;;;;;;;19.42;7.18;;;;;;;10.01;100.00;101334.69;4993020;28;20128;-91
2022/10/18 09:36:00;;;;;;;13.15;6.57;;;;;;;10.16;100.00;101335.31;5016574;28;20058;-91
2022/10/18 09:38:53;;;;;;;17.30;6.85;;;;;;;10.33;100.00;101325.19;4966918;28;20391;-91
2022/10/18 09:41:30;;;;;;;17.98;6.57;;;;;;;10.47;100.00;101326.78;5012744;28;20102;-90
2022/10/18 09:44:05;;;;;;;24.15;6.70;;;;;;;10.62;100.00;101324.75;5046085;28;20043;-92
2022/10/18 09:46:50;;;;;;;19.80;6.00;;;;;;;10.86;100.00;101321.09;5005421;28;20641;-91
2022/10/18 09:49:28;;;;;;;19.38;4.88;;;;;;;11.16;100.00;101341.53;4999951;28;20029;-91
2022/10/18 09:52:01;;;;;;;14.65;2.72;;;;;;;11.44;100.00;101338.41;5014756;28;20080;-93
2022/10/18 09:54:41;;;;;;;17.88;2.38;;;;;;;11.67;100.00;101333.00;5009627;28;20056;-91
2022/10/18 09:57:25;;;;;;;12.57;2.20;;;;;;;11.85;100.00;101335.06;5005519;28;20083;-93
2022/10/18 09:59:53;;;;;;;16.90;2.95;;;;;;;11.99;100.00;101337.34;5004456;28;20028;-92
2022/10/18 10:02:22;;;;;;;17.52;2.38;;;;;;;12.21;100.00;101343.50;5019719;28;20030;-92
2022/10/18 10:04:53;;;;;;;15.93;2.45;;;;;;;12.27;100.00;101342.97;5018586;28;20029;-93
2022/10/18 10:07:25;;;;;;;16.50;2.30;;;;;;;12.39;100.00;101343.69;5027729;28;20033;-93
2022/10/18 10:10:07;;;;;;;17.17;2.60;;;;;;;12.59;100.00;101354.38;5002071;28;20053;-93
2022/10/18 10:12:40;;;;;;;11.40;2.35;;;;;;;12.72;100.00;101346.19;5018825;28;20139;-92
2022/10/18 10:15:18;;;;;;;19.92;3.40;;;;;;;12.89;100.00;101365.91;4998904;28;20037;-92
2022/10/18 10:17:58;;;;;;;15.82;3.15;;;;;;;12.94;100.00;101367.28;5002885;28;20087;-93
2022/10/18 10:20:35;;;;;;;19.42;2.45;;;;;;;13.02;100.00;101356.84;5020883;28;20081;-93
2022/10/18 10:23:09;;;;;;;16.10;3.13;;;;;;;13.07;100.00;101356.41;5017638;28;20033;-93
2022/10/18 10:25:42;;;;;;;10.63;2.00;;;;;;;13.13;100.00;101363.81;5013635;28;20036;-84
2022/10/18 10:28:16;;;;;;;17.02;2.28;;;;;;;13.15;100.00;101354.75;5018038;28;20389;-86
2022/10/18 10:30:45;;;;;;;16.95;2.95;;;;;;;13.25;100.00;101352.09;5042478;28;20481;-93
2022/10/18 10:33:38;;;;;;;13.15;2.25;;;;;;;13.30;100.00;101349.03;5034840;28;20037;-93
2022/10/18 10:36:16;;;;;;;15.35;2.50;;;;;;;13.32;100.00;101360.34;5020287;28;20033;-93
2022/10/18 10:38:44;;;;;;;10.00;2.22;;;;;;;13.45;100.00;101357.41;5001103;28;20033;-94
2022/10/18 10:41:22;;;;;;;14.43;2.45;;;;;;;13.56;100.00;101350.28;4997470;28;20091;-91
2022/10/18 10:43:51;;;;;;;14.13;2.40;;;;;;;13.57;100.00;101352.81;5021242;28;20090;-91
2022/10/18 10:46:21;;;;;;;11.48;2.28;;;;;;;13.57;100.00;101370.59;5005496;28;20473;-92
2022/10/18 10:48:58;;;;;;;17.67;2.88;;;;;;;13.59;100.00;101377.41;5013625;28;20029;-92
2022/10/18 10:51:35;;;;;;;12.95;2.22;;;;;;;13.56;100.00;101364.41;5007489;28;20052;-92
2022/10/18 10:54:12;;;;;;;14.80;2.85;;;;;;;13.56;100.00;101366.22;5032987;28;20029;-91
2022/10/18 10:56:58;;;;;;;14.52;1.83;;;;;;;13.61;100.00;101364.00;5044810;28;20028;-92
2022/10/18 10:59:36;;;;;;;20.08;2.22;;;;;;;13.65;100.00;101357.41;5032758;28;20075;-91
2022/10/18 11:02:21;;;;;;;16.27;2.35;;;;;;;13.73;100.00;101354.03;5027777;28;20025;-92
2022/10/18 11:04:53;;;;;;;11.75;2.65;;;;;;;13.83;100.00;101348.72;5003346;28;20044;-92
2022/10/18 11:07:25;;;;;;;14.00;2.25;;;;;;;13.86;100.00;101335.97;5001160;28;20413;-92
2022/10/18 11:10:15;;;;;;;17.63;2.22;;;;;;;13.97;100.00;101340.28;5026639;28;20053;-93
2022/10/18 11:13:01;;;;;;;9.65;1.88;;;;;;;14.04;100.00;101335.22;5007198;28;20095;-92
2022/10/18 11:15:38;;;;;;;14.65;1.58;;;;;;;14.13;100.00;101334.34;5038274;28;20040;-92
2022/10/18 11:18:25;;;;;;;11.30;1.52;;;;;;;14.25;100.00;101345.63;5017176;28;20064;-92
2022/10/18 11:20:58;;;;;;;15.15;2.92;;;;;;;14.29;100.00;101340.88;5004060;28;20048;-92
2022/10/18 11:23:31;;;;;;;14.43;1.27;;;;;;;14.35;100.00;101334.94;5019388;28;20042;-91
2022/10/18 11:26:11;;;;;;;8.32;1.10;;;;;;;14.35;100.00;101339.47;5017807;28;20126;-93
2022/10/18 11:28:52;;;;;;;12.07;1.75;;;;;;;14.42;100.00;101335.22;5024314;28;20063;-92
2022/10/18 11:31:38;;;;;;;13.27;1.70;;;;;;;14.53;100.00;101323.53;5016974;28;20043;-92
2022/10/18 11:34:27;;;;;;;11.90;1.75;;;;;;;14.75;100.00;101324.94;5017495;28;20029;-92
2022/10/18 11:36:59;;;;;;;10.45;1.40;;;;;;;14.80;100.00;101321.00;5020484;28;20091;-92
2022/10/18 11:40:00;;;;;;;7.60;1.15;;;;;;;14.82;100.00;101327.03;5014483;28;20148;-93
2022/10/18 11:42:49;;;;;;;8.63;1.48;;;;;;;14.80;100.00;101321.84;5034402;28;20060;-92
2022/10/18 11:45:29;;;;;;;10.55;1.42;;;;;;;14.71;100.00;101318.25;5034527;28;20034;-92